createdAt,value
2019-03-24T01:57:14.191Z,53.87
2019-03-24T01:59:45.113Z,44.23
2019-03-24T02:02:16.025Z,54.53
2019-03-24T02:04:46.950Z,48.37
2019-03-24T02:07:17.821Z,47.43
2019-03-24T02:09:48.753Z,47.30
2019-03-24T02:12:19.634Z,43.47
2019-03-24T02:14:50.572Z,47.80
2019-03-24T02:17:21.557Z,48.67
2019-03-24T02:19:52.553Z,48.70
2019-03-24T02:22:23.429Z,51.47
2019-03-24T02:24:54.365Z,50.73
2019-03-24T02:27:25.249Z,49.53
2019-03-24T02:29:56.156Z,50.73
2019-03-24T02:32:27.032Z,47.90
2019-03-24T02:34:57.955Z,51.53
2019-03-24T02:37:28.831Z,52.37
2019-03-24T02:39:59.770Z,52.67
2019-03-24T02:42:30.656Z,52.07
2019-03-24T02:45:01.594Z,56.73
2019-03-24T02:47:32.517Z,48.27
2019-03-24T02:50:03.526Z,51.63
2019-03-24T02:52:34.413Z,48.17
2019-03-24T02:55:05.699Z,50.57
2019-03-24T02:57:36.595Z,51.33
2019-03-24T03:00:08.213Z,48.60
2019-03-24T03:02:39.106Z,51.33
2019-03-24T03:05:10.982Z,49.03
2019-03-24T03:07:41.927Z,49.30
2019-03-24T03:10:13.174Z,54.73
2019-03-24T03:12:44.050Z,53.23
2019-03-24T03:15:15.389Z,56.90
2019-03-24T03:17:46.258Z,48.03
2019-03-24T03:20:18.137Z,47.50
2019-03-24T03:22:49.003Z,54.80
2019-03-24T03:25:19.939Z,41.60
2019-03-24T03:27:50.807Z,50.40
2019-03-24T03:30:21.743Z,61.27
2019-03-24T03:32:52.596Z,53.77
2019-03-24T03:35:25.054Z,47.20
2019-03-24T03:37:55.937Z,49.23
2019-03-24T03:40:26.862Z,50.80
2019-03-24T03:42:57.755Z,58.13
2019-03-24T03:45:29.648Z,60.57
2019-03-24T03:48:00.592Z,53.63
2019-03-24T03:50:32.603Z,64.43
2019-03-24T03:53:03.479Z,68.27
2019-03-24T03:55:34.893Z,62.03
2019-03-24T03:58:05.794Z,55.00
2019-03-24T04:00:38.035Z,55.17
2019-03-24T04:03:08.914Z,44.57
2019-03-24T04:05:39.842Z,49.00
2019-03-24T04:08:10.727Z,47.80
2019-03-24T04:10:41.659Z,54.00
2019-03-24T04:13:12.547Z,62.17
2019-03-24T04:15:43.458Z,55.03
2019-03-24T04:18:14.355Z,62.87
2019-03-24T04:20:45.398Z,54.03
2019-03-24T04:23:16.285Z,51.53
2019-03-24T04:25:47.279Z,51.37
2019-03-24T04:28:18.183Z,50.73
2019-03-24T04:30:49.099Z,50.37
2019-03-24T04:33:19.979Z,46.80
2019-03-24T04:35:53.950Z,44.63
2019-03-24T04:38:24.841Z,53.47
2019-03-24T04:40:55.742Z,48.83
2019-03-24T04:43:26.625Z,50.50
2019-03-24T04:45:57.633Z,54.43
2019-03-24T04:48:28.654Z,55.70
2019-03-24T04:50:59.989Z,43.37
2019-03-24T04:53:30.882Z,40.53
2019-03-24T04:56:01.794Z,47.17
2019-03-24T04:58:32.680Z,47.80
2019-03-24T05:01:03.695Z,47.67
2019-03-24T05:03:34.583Z,56.03
2019-03-24T05:06:06.053Z,54.23
2019-03-24T05:08:37.334Z,57.60
2019-03-24T05:11:08.313Z,45.60
2019-03-24T05:13:39.205Z,47.03
2019-03-24T05:16:10.121Z,48.17
2019-03-24T05:18:41.006Z,45.33
2019-03-24T05:21:11.913Z,45.77
2019-03-24T05:23:46.035Z,41.60
2019-03-24T05:26:16.482Z,51.63
2019-03-24T05:28:47.366Z,52.00
2019-03-24T05:31:18.294Z,40.87
2019-03-24T05:33:50.101Z,48.63
2019-03-24T05:36:21.021Z,40.83
2019-03-24T05:38:51.911Z,47.10
2019-03-24T05:41:22.837Z,40.47
2019-03-24T05:43:53.731Z,44.03
2019-03-24T05:46:24.658Z,46.20
2019-03-24T05:48:55.947Z,38.20
2019-03-24T05:51:26.951Z,49.70
2019-03-24T05:53:57.825Z,44.30
2019-03-24T05:56:31.024Z,48.10
2019-03-24T05:59:01.929Z,46.30
2019-03-24T06:01:33.274Z,38.80
2019-03-24T06:04:04.154Z,38.70
2019-03-24T06:06:35.086Z,47.30
2019-03-24T06:09:07.905Z,30.10
2019-03-24T06:11:38.839Z,34.90
2019-03-24T06:14:09.717Z,29.60
2019-03-24T06:16:40.634Z,30.13
2019-03-24T06:19:11.521Z,34.13
2019-03-24T06:21:42.445Z,30.03
2019-03-24T06:24:13.325Z,30.53
2019-03-24T06:26:44.299Z,21.00
2019-03-24T06:29:15.137Z,24.83
2019-03-24T06:31:46.122Z,32.40
2019-03-24T06:34:17.010Z,24.13
2019-03-24T06:36:47.926Z,27.10
2019-03-24T06:39:19.881Z,24.20
2019-03-24T06:41:50.818Z,25.53
2019-03-24T06:44:21.698Z,27.50
2019-03-24T06:46:52.631Z,22.37
2019-03-24T06:49:23.659Z,26.83
2019-03-24T06:51:54.595Z,29.20
2019-03-24T06:54:25.468Z,19.70
2019-03-24T06:56:56.381Z,26.53
2019-03-24T06:59:27.281Z,21.13
2019-03-24T07:01:58.206Z,23.97
2019-03-24T07:04:29.085Z,19.07
2019-03-24T07:07:01.070Z,17.70
2019-03-24T07:09:31.941Z,18.30
2019-03-24T07:12:02.874Z,20.60
2019-03-24T07:14:33.750Z,22.50
2019-03-24T07:17:04.671Z,20.87
2019-03-24T07:19:35.537Z,21.70
2019-03-24T07:22:07.362Z,17.50
2019-03-24T07:24:38.410Z,18.23
2019-03-24T07:27:09.726Z,21.97
2019-03-24T07:29:41.277Z,25.67
2019-03-24T07:32:12.321Z,22.07
2019-03-24T07:34:43.197Z,22.53
2019-03-24T07:37:14.314Z,25.00
2019-03-24T07:39:45.194Z,21.23
2019-03-24T07:42:16.123Z,22.80
2019-03-24T07:44:47.000Z,15.83
2019-03-24T07:47:17.913Z,18.37
2019-03-24T07:49:48.842Z,16.07
2019-03-24T07:52:19.953Z,18.70
2019-03-24T07:54:50.837Z,21.77
2019-03-24T07:57:21.743Z,17.57
2019-03-24T07:59:52.904Z,20.73
2019-03-24T08:02:24.939Z,18.70
2019-03-24T08:05:16.062Z,22.47
2019-03-24T08:08:02.612Z,17.80
2019-03-24T08:10:34.682Z,20.30
2019-03-24T08:13:05.961Z,17.67
2019-03-24T08:15:36.837Z,20.73
2019-03-24T08:18:08.145Z,17.67
2019-03-24T08:20:39.026Z,21.83
2019-03-24T08:23:09.941Z,17.83
2019-03-24T08:25:41.254Z,15.27
2019-03-24T08:28:12.738Z,21.37
2019-03-24T08:30:43.965Z,21.17
2019-03-24T08:33:14.962Z,24.03
2019-03-24T08:35:45.838Z,17.53
2019-03-24T08:38:16.774Z,19.47
2019-03-24T08:40:47.682Z,16.47
2019-03-24T08:43:19.874Z,13.80
2019-03-24T08:45:50.765Z,16.27
2019-03-24T08:48:21.689Z,15.73
2019-03-24T08:50:52.621Z,19.77
2019-03-24T08:53:23.561Z,14.20
2019-03-24T08:55:54.449Z,14.70
2019-03-24T08:58:25.449Z,19.10
2019-03-24T09:00:56.330Z,16.63
2019-03-24T09:03:27.316Z,12.23
2019-03-24T09:05:58.217Z,16.87
2019-03-24T09:08:29.339Z,15.07
2019-03-24T09:11:00.238Z,14.20
2019-03-24T09:13:31.161Z,13.20
2019-03-24T09:16:02.037Z,14.83
2019-03-24T09:18:33.468Z,12.60
2019-03-24T09:21:04.423Z,15.27
2019-03-24T09:23:35.338Z,14.27
2019-03-24T09:26:06.228Z,16.87
2019-03-24T09:28:37.158Z,15.87
2019-03-24T09:31:08.065Z,13.70
2019-03-24T09:33:40.637Z,12.20
2019-03-24T09:36:11.525Z,12.37
2019-03-24T09:38:42.486Z,11.77
2019-03-24T09:41:13.354Z,18.03
2019-03-24T09:43:44.273Z,18.17
2019-03-24T09:46:15.180Z,15.47
2019-03-24T09:48:46.202Z,12.70
2019-03-24T09:51:17.159Z,12.30
2019-03-24T09:53:48.429Z,12.37
2019-03-24T09:56:19.317Z,13.70
2019-03-24T09:58:50.646Z,13.30
2019-03-24T10:01:21.538Z,16.13
2019-03-24T10:03:52.461Z,9.87
2019-03-24T10:06:23.330Z,11.97
2019-03-24T10:08:54.252Z,14.50
2019-03-24T10:11:25.209Z,13.23
2019-03-24T10:13:56.121Z,9.53
2019-03-24T10:16:27.017Z,10.43
2019-03-24T10:18:58.026Z,13.13
2019-03-24T10:21:28.950Z,9.27
2019-03-24T10:23:59.897Z,11.93
2019-03-24T10:26:30.773Z,15.67
2019-03-24T10:29:01.787Z,14.20
2019-03-24T10:31:32.665Z,13.93
2019-03-24T10:34:03.606Z,16.47
2019-03-24T10:36:34.497Z,14.63
2019-03-24T10:39:06.870Z,12.27
2019-03-24T10:41:37.752Z,15.63
2019-03-24T10:44:08.661Z,11.73
2019-03-24T10:46:39.541Z,11.00
2019-03-24T10:49:10.441Z,15.47
2019-03-24T10:51:41.471Z,12.90
2019-03-24T10:54:12.416Z,8.37
2019-03-24T10:56:43.304Z,10.40
2019-03-24T10:59:14.258Z,11.33
2019-03-24T11:01:45.154Z,11.57
2019-03-24T11:04:17.121Z,14.57
2019-03-24T11:06:48.103Z,11.53
2019-03-24T11:09:19.162Z,10.87
2019-03-24T11:11:50.045Z,9.57
2019-03-24T11:14:20.971Z,12.90
2019-03-24T11:16:51.852Z,7.77
2019-03-24T11:19:22.879Z,16.97
2019-03-24T11:21:53.839Z,13.53
2019-03-24T11:24:24.761Z,13.97
2019-03-24T11:26:55.654Z,11.13
2019-03-24T11:29:26.661Z,11.93
2019-03-24T11:31:57.542Z,12.20
2019-03-24T11:34:28.558Z,9.83
2019-03-24T11:36:59.444Z,10.40
2019-03-24T11:39:30.381Z,13.70
2019-03-24T11:42:01.463Z,16.87
2019-03-24T11:44:34.718Z,9.23
2019-03-24T11:47:05.096Z,12.30
2019-03-24T11:49:45.780Z,14.50
2019-03-24T11:52:08.746Z,9.17
2019-03-24T11:54:39.754Z,12.83
2019-03-24T11:57:10.658Z,11.63
2019-03-24T11:59:42.636Z,13.93
2019-03-24T12:02:13.566Z,12.00
2019-03-24T12:04:44.893Z,10.70
2019-03-24T12:07:15.783Z,13.17
2019-03-24T12:09:46.813Z,10.40
2019-03-24T12:12:17.780Z,10.00
2019-03-24T12:15:09.029Z,7.77
2019-03-24T12:17:39.938Z,9.73
2019-03-24T12:20:11.153Z,11.10
2019-03-24T12:22:42.050Z,8.20
2019-03-24T12:25:13.074Z,8.50
2019-03-24T12:27:44.056Z,10.60
2019-03-24T12:30:15.512Z,9.00
2019-03-24T12:32:46.438Z,8.80
2019-03-24T12:35:17.403Z,7.87
2019-03-24T12:37:48.294Z,8.17
2019-03-24T12:40:20.366Z,6.57
2019-03-24T12:42:51.263Z,9.23
2019-03-24T12:45:22.508Z,7.67
2019-03-24T12:47:53.391Z,10.53
2019-03-24T12:50:31.354Z,7.23
2019-03-24T12:52:56.938Z,8.80
2019-03-24T12:55:27.954Z,10.30
2019-03-24T12:57:58.858Z,11.00
2019-03-24T13:00:37.711Z,8.03
2019-03-24T13:03:08.751Z,9.67
2019-03-24T13:05:39.691Z,9.97
2019-03-24T13:08:20.142Z,11.00
2019-03-24T13:10:51.083Z,11.03
2019-03-24T13:13:22.024Z,8.77
2019-03-24T13:15:52.967Z,10.67
2019-03-24T13:18:23.850Z,8.83
2019-03-24T13:20:54.858Z,7.83
2019-03-24T13:23:25.753Z,9.23
2019-03-24T13:25:56.701Z,11.43
2019-03-24T13:28:27.586Z,11.40
2019-03-24T13:30:58.508Z,10.57
2019-03-24T13:33:29.401Z,8.03
2019-03-24T13:36:10.014Z,8.40
2019-03-24T13:38:40.922Z,11.57
2019-03-24T13:41:11.937Z,9.03
2019-03-24T13:43:42.848Z,11.67
2019-03-24T13:46:14.009Z,10.20
2019-03-24T13:48:45.975Z,8.13
2019-03-24T13:51:16.894Z,9.43
2019-03-24T13:53:47.802Z,9.57
2019-03-24T13:56:18.762Z,10.83
2019-03-24T13:58:49.678Z,13.03
2019-03-24T14:01:21.059Z,12.07
2019-03-24T14:03:52.015Z,10.07
2019-03-24T14:06:22.977Z,9.57
2019-03-24T14:08:54.190Z,12.53
2019-03-24T14:11:25.151Z,8.73
2019-03-24T14:13:56.033Z,10.03
2019-03-24T14:16:28.055Z,13.93
2019-03-24T14:18:58.945Z,9.83
2019-03-24T14:21:29.877Z,11.33
2019-03-24T14:24:00.765Z,10.90
2019-03-24T14:26:31.831Z,11.50
2019-03-24T14:29:02.736Z,14.93
2019-03-24T14:31:33.765Z,14.63
2019-03-24T14:34:04.690Z,10.20
2019-03-24T14:36:35.614Z,10.53
2019-03-24T14:39:07.578Z,11.17
2019-03-24T14:41:38.518Z,13.40
2019-03-24T14:44:10.483Z,15.43
2019-03-24T14:46:41.443Z,11.77
2019-03-24T14:49:12.351Z,10.60
2019-03-24T14:51:43.285Z,11.07
2019-03-24T14:54:15.301Z,12.27
2019-03-24T14:56:47.385Z,12.17
2019-03-24T14:59:18.688Z,12.57
2019-03-24T15:01:49.733Z,15.57
2019-03-24T15:04:20.642Z,6.77
2019-03-24T15:06:51.741Z,10.27
2019-03-24T15:09:22.693Z,11.07
2019-03-24T15:11:53.666Z,11.70
2019-03-24T15:14:24.605Z,10.83
2019-03-24T15:16:55.685Z,13.47
2019-03-24T15:19:26.714Z,9.70
2019-03-24T15:21:58.080Z,9.70
2019-03-24T15:24:29.033Z,12.37
2019-03-24T15:27:00.494Z,13.50
2019-03-24T15:29:31.489Z,11.67
2019-03-24T15:32:03.758Z,7.80
2019-03-24T15:34:34.675Z,9.47
2019-03-24T15:37:05.601Z,7.00
2019-03-24T15:39:37.059Z,9.00
2019-03-24T15:42:11.192Z,8.90
2019-03-24T15:44:42.235Z,13.60
2019-03-24T15:47:13.295Z,10.10
2019-03-24T15:49:44.354Z,8.97
2019-03-24T15:52:15.337Z,7.97
2019-03-24T15:54:46.368Z,10.37
2019-03-24T15:57:17.819Z,8.10
2019-03-24T15:59:50.404Z,5.67
2019-03-24T16:02:21.774Z,14.50
2019-03-24T16:04:52.760Z,11.17
2019-03-24T16:07:23.687Z,9.17
2019-03-24T16:09:54.573Z,12.60
2019-03-24T16:12:25.511Z,15.37
2019-03-24T16:14:56.409Z,9.63
2019-03-24T16:17:27.508Z,8.17
2019-03-24T16:19:58.398Z,8.87
2019-03-24T16:22:31.137Z,10.40
2019-03-24T16:25:02.059Z,11.70
2019-03-24T16:27:35.028Z,8.90
2019-03-24T16:30:06.338Z,11.37
2019-03-24T16:32:37.413Z,10.10
2019-03-24T16:35:08.794Z,9.00
2019-03-24T16:37:39.744Z,7.80
2019-03-24T16:40:10.741Z,15.37
2019-03-24T16:42:42.045Z,10.20
2019-03-24T16:45:13.250Z,12.50
2019-03-24T16:47:44.270Z,11.27
2019-03-24T16:50:16.226Z,11.27
2019-03-24T16:52:47.577Z,8.80
2019-03-24T16:55:18.562Z,8.13
2019-03-24T16:57:49.920Z,9.57
2019-03-24T17:00:20.993Z,11.03
2019-03-24T17:02:52.028Z,11.17
2019-03-24T17:05:27.498Z,7.30
2019-03-24T17:07:58.168Z,14.67
2019-03-24T17:10:29.362Z,12.10
2019-03-24T17:13:02.026Z,14.87
2019-03-24T17:15:33.006Z,6.40
2019-03-24T17:18:04.559Z,11.53
2019-03-24T17:20:35.526Z,11.87
2019-03-24T17:23:07.151Z,10.77
2019-03-24T17:25:38.088Z,11.33
2019-03-24T17:28:09.013Z,9.47
2019-03-24T17:30:39.934Z,13.93
2019-03-24T17:33:11.318Z,9.87
2019-03-24T17:35:42.309Z,14.27
2019-03-24T17:38:13.219Z,8.37
2019-03-24T17:40:44.117Z,10.97
2019-03-24T17:43:16.302Z,14.03
2019-03-24T17:45:47.202Z,12.90
2019-03-24T17:48:18.199Z,11.90
2019-03-24T17:50:50.153Z,10.53
2019-03-24T17:53:21.452Z,11.87
2019-03-24T17:55:52.518Z,7.73
2019-03-24T17:58:23.528Z,11.30
2019-03-24T18:00:57.341Z,11.73
2019-03-24T18:03:28.269Z,7.30
2019-03-24T18:05:59.742Z,9.47
2019-03-24T18:08:30.673Z,8.27
2019-03-24T18:11:01.609Z,12.50
2019-03-24T18:13:33.585Z,13.73
2019-03-24T18:16:04.511Z,18.07
2019-03-24T18:18:35.507Z,18.33
2019-03-24T18:21:06.769Z,16.73
2019-03-24T18:23:37.795Z,15.63
2019-03-24T18:26:08.690Z,12.83
2019-03-24T18:28:39.609Z,14.67
2019-03-24T18:31:21.803Z,14.40
2019-03-24T18:33:52.801Z,18.90
2019-03-24T18:36:23.678Z,15.57
2019-03-24T18:38:55.441Z,16.93
2019-03-24T18:41:26.333Z,19.03
2019-03-24T18:43:57.577Z,17.27
2019-03-24T18:46:28.502Z,16.07
2019-03-24T18:48:59.425Z,17.17
2019-03-24T18:51:30.316Z,26.90
2019-03-24T18:54:01.277Z,28.60
2019-03-24T18:56:32.213Z,26.43
2019-03-24T18:59:03.157Z,21.20
2019-03-24T19:01:34.069Z,21.20
2019-03-24T19:04:04.993Z,18.40
2019-03-24T19:06:35.886Z,20.63
2019-03-24T19:09:09.390Z,13.10
2019-03-24T19:11:40.278Z,11.77
2019-03-24T19:14:11.283Z,14.23
2019-03-24T19:16:42.168Z,13.50
2019-03-24T19:19:13.183Z,13.80
2019-03-24T19:21:44.067Z,13.07
2019-03-24T19:24:15.074Z,12.90
2019-03-24T19:26:45.986Z,16.53
2019-03-24T19:29:18.065Z,14.17
2019-03-24T19:31:49.354Z,15.20
2019-03-24T19:34:20.284Z,13.00
2019-03-24T19:36:51.165Z,10.03
2019-03-24T19:39:23.387Z,10.47
2019-03-24T19:41:54.650Z,12.73
2019-03-24T19:44:25.888Z,12.07
2019-03-24T19:47:07.793Z,17.50
2019-03-24T19:49:39.174Z,13.77
2019-03-24T19:52:10.300Z,11.37
2019-03-24T19:54:41.283Z,14.97
2019-03-24T19:57:12.762Z,13.17
2019-03-24T19:59:44.357Z,20.33
2019-03-24T20:02:15.692Z,11.73
2019-03-24T20:04:47.244Z,15.10
2019-03-24T20:07:18.294Z,13.73
2019-03-24T20:09:49.632Z,13.33
2019-03-24T20:12:20.537Z,8.67
2019-03-24T20:14:51.590Z,11.57
2019-03-24T20:17:24.847Z,12.20
2019-03-24T20:19:56.206Z,9.93
2019-03-24T20:22:27.243Z,12.70
2019-03-24T20:24:58.443Z,14.63
2019-03-24T20:27:29.589Z,15.77
2019-03-24T20:30:00.610Z,14.07
2019-03-24T20:32:31.704Z,19.73
2019-03-24T20:35:02.917Z,8.50
2019-03-24T20:37:34.213Z,15.97
2019-03-24T20:40:05.814Z,17.40
2019-03-24T20:42:36.751Z,10.83
2019-03-24T20:45:09.939Z,14.20
2019-03-24T20:47:40.928Z,11.90
2019-03-24T20:50:12.478Z,13.27
2019-03-24T20:52:43.769Z,20.73
2019-03-24T20:55:15.253Z,15.07
2019-03-24T20:57:46.440Z,10.80
2019-03-24T21:00:37.939Z,14.67
2019-03-24T21:03:09.984Z,19.13
2019-03-24T21:05:40.997Z,18.37
2019-03-24T21:08:12.050Z,19.80
2019-03-24T21:10:43.122Z,17.97
2019-03-24T21:13:14.186Z,21.97
2019-03-24T21:15:45.386Z,19.03
2019-03-24T21:18:16.274Z,15.00
2019-03-24T21:20:47.230Z,12.97
2019-03-24T21:23:28.895Z,13.20
2019-03-24T21:25:51.093Z,16.50
2019-03-24T21:28:22.083Z,15.00
2019-03-24T21:30:53.070Z,16.57
2019-03-24T21:33:23.977Z,18.70
2019-03-24T21:35:55.027Z,15.83
2019-03-24T21:38:25.949Z,14.77
2019-03-24T21:40:57.654Z,17.90
2019-03-24T21:43:28.663Z,14.60
2019-03-24T21:45:59.649Z,16.93
2019-03-24T21:48:30.655Z,15.30
2019-03-24T21:51:02.167Z,24.77
2019-03-24T21:53:40.691Z,15.83
2019-03-24T21:56:05.996Z,22.03
2019-03-24T21:58:37.218Z,19.33
2019-03-24T22:01:08.355Z,22.17
2019-03-24T22:03:40.675Z,25.37
2019-03-24T22:06:12.249Z,18.07
2019-03-24T22:08:43.957Z,18.47
2019-03-24T22:11:15.743Z,17.13
2019-03-24T22:13:46.910Z,21.50
2019-03-24T22:16:18.047Z,25.70
2019-03-24T22:18:49.079Z,16.27
2019-03-24T22:21:20.141Z,23.97
2019-03-24T22:23:52.589Z,27.33
2019-03-24T22:26:25.030Z,22.23
2019-03-24T22:28:56.124Z,20.13
2019-03-24T22:31:29.332Z,19.87
2019-03-24T22:34:00.316Z,22.87
2019-03-24T22:36:31.440Z,23.63
2019-03-24T22:39:02.829Z,18.60
2019-03-24T22:41:35.230Z,21.70
2019-03-24T22:44:06.443Z,19.37
2019-03-24T22:46:37.719Z,19.07
2019-03-24T22:49:08.855Z,18.37
2019-03-24T22:51:40.485Z,15.97
2019-03-24T22:54:11.510Z,16.87
2019-03-24T22:56:42.621Z,20.00
2019-03-24T22:59:13.875Z,18.50
2019-03-24T23:01:45.006Z,22.17
2019-03-24T23:04:16.110Z,16.77
2019-03-24T23:06:47.969Z,17.97
2019-03-24T23:09:18.963Z,16.53
2019-03-24T23:11:50.769Z,17.03
2019-03-24T23:14:21.651Z,18.00
2019-03-24T23:16:52.662Z,20.90
2019-03-24T23:19:23.586Z,12.53
2019-03-24T23:22:13.290Z,24.73
2019-03-24T23:24:44.173Z,14.83
2019-03-24T23:27:15.221Z,20.97
2019-03-24T23:29:46.177Z,17.03
2019-03-24T23:32:17.085Z,20.40
2019-03-24T23:34:48.052Z,19.27
2019-03-24T23:37:19.230Z,17.10
2019-03-24T23:39:50.238Z,21.70
2019-03-24T23:42:21.538Z,21.33
2019-03-24T23:44:52.452Z,20.97
2019-03-24T23:47:23.425Z,13.33
2019-03-24T23:49:54.354Z,14.10
2019-03-24T23:52:25.292Z,19.50
2019-03-24T23:54:56.181Z,12.97
2019-03-24T23:57:27.182Z,14.40
2019-03-24T23:59:58.126Z,18.60
